createdAt,value
2023-02-22T00:00:09.929Z,60.53
2023-02-22T00:03:10.350Z,60.54
2023-02-22T00:06:07.925Z,60.65
2023-02-22T00:09:35.373Z,60.64
2023-02-22T00:15:33.773Z,60.98
2023-02-22T00:18:12.090Z,60.85
2023-02-22T00:20:46.936Z,60.83
2023-02-22T00:23:22.137Z,60.97
2023-02-22T00:25:58.608Z,61.06
2023-02-22T00:29:00.122Z,61.15
2023-02-22T00:32:00.424Z,61.19
2023-02-22T00:34:36.686Z,61.05
2023-02-22T00:38:02.615Z,61.16
2023-02-22T00:40:40.221Z,61.07
2023-02-22T00:43:41.741Z,61.16
2023-02-22T00:46:47.619Z,61.29
2023-02-22T00:49:23.348Z,61.13
2023-02-22T00:51:58.792Z,61.28
2023-02-22T00:54:33.032Z,61.25
2023-02-22T00:57:06.848Z,61.12
2023-02-22T00:59:43.301Z,61.35
2023-02-22T01:02:23.374Z,61.36
2023-02-22T01:05:01.105Z,61.30
2023-02-22T01:07:40.877Z,61.38
2023-02-22T01:10:19.494Z,61.37
2023-02-22T01:13:23.139Z,61.55
2023-02-22T01:15:58.630Z,61.80
2023-02-22T01:21:33.888Z,61.78
2023-02-22T01:34:48.369Z,61.98
2023-02-22T01:41:58.636Z,62.28
2023-02-22T01:44:35.184Z,62.45
2023-02-22T01:47:09.781Z,62.61
2023-02-22T01:50:35.273Z,62.60
2023-02-22T01:53:12.873Z,62.62
2023-02-22T01:55:51.681Z,62.65
2023-02-22T01:58:27.618Z,62.57
2023-02-22T02:01:08.034Z,62.48
2023-02-22T02:04:10.651Z,62.52
2023-02-22T02:06:49.549Z,62.67
2023-02-22T02:09:50.728Z,62.80
2023-02-22T02:12:51.276Z,62.80
2023-02-22T02:15:53.856Z,62.54
2023-02-22T02:18:29.591Z,62.71
2023-02-22T02:21:48.361Z,62.49
2023-02-22T02:24:59.778Z,62.65
2023-02-22T02:27:48.448Z,62.95
2023-02-22T02:31:11.339Z,63.15
2023-02-22T02:34:55.032Z,63.29
2023-02-22T02:38:00.495Z,63.20
2023-02-22T02:40:38.723Z,63.30
2023-02-22T02:43:27.420Z,63.28
2023-02-22T02:46:04.998Z,63.40
2023-02-22T02:49:06.607Z,63.37
2023-02-22T02:51:43.511Z,63.50
2023-02-22T02:54:20.268Z,63.86
2023-02-22T02:57:05.610Z,63.61
2023-02-22T02:59:39.683Z,63.74
2023-02-22T03:02:25.081Z,63.70
2023-02-22T03:05:41.420Z,63.48
2023-02-22T03:09:04.188Z,63.92
2023-02-22T03:11:48.612Z,63.95
2023-02-22T03:21:11.704Z,64.16
2023-02-22T03:23:55.787Z,64.24
2023-02-22T03:27:01.647Z,64.33
2023-02-22T03:30:25.679Z,64.19
2023-02-22T03:33:30.869Z,64.25
2023-02-22T03:36:34.169Z,64.01
2023-02-22T03:42:37.744Z,63.94
2023-02-22T03:45:15.624Z,64.36
2023-02-22T03:48:19.618Z,64.61
2023-02-22T03:51:02.682Z,64.70
2023-02-22T03:54:27.419Z,64.88
2023-02-22T04:00:29.426Z,64.62
2023-02-22T04:03:31.723Z,64.67
2023-02-22T04:06:05.858Z,64.38
2023-02-22T04:09:30.416Z,64.55
2023-02-22T04:12:06.371Z,64.57
2023-02-22T04:14:43.899Z,64.61
2023-02-22T04:17:18.646Z,64.69
2023-02-22T04:19:52.277Z,64.74
2023-02-22T04:29:13.711Z,64.75
2023-02-22T04:31:49.368Z,65.17
2023-02-22T04:34:26.509Z,64.70
2023-02-22T04:37:30.660Z,64.96
2023-02-22T04:40:31.477Z,64.89
2023-02-22T04:43:09.029Z,65.00
2023-02-22T04:45:44.029Z,65.27
2023-02-22T04:48:16.243Z,65.22
2023-02-22T04:51:14.328Z,65.13
2023-02-22T04:53:50.498Z,64.98
2023-02-22T04:56:48.993Z,64.98
2023-02-22T04:59:53.876Z,65.43
2023-02-22T05:02:52.523Z,65.13
2023-02-22T05:05:26.885Z,65.26
2023-02-22T05:08:04.524Z,65.31
2023-02-22T05:11:02.815Z,65.17
2023-02-22T05:14:04.320Z,65.17
2023-02-22T05:16:40.618Z,64.93
2023-02-22T05:19:16.333Z,64.95
2023-02-22T05:21:53.349Z,65.15
2023-02-22T05:24:29.328Z,65.09
2023-02-22T05:27:09.869Z,64.87
2023-02-22T05:29:48.038Z,64.86
2023-02-22T05:32:23.892Z,64.86
2023-02-22T05:35:02.038Z,64.99
2023-02-22T05:37:37.055Z,65.22
2023-02-22T05:40:17.374Z,64.93
2023-02-22T05:42:52.957Z,64.78
2023-02-22T05:45:27.705Z,64.87
2023-02-22T05:48:07.404Z,65.27
2023-02-22T05:51:05.203Z,65.49
2023-02-22T05:53:38.639Z,65.22
2023-02-22T05:56:11.016Z,65.23
2023-02-22T06:01:46.856Z,65.68
2023-02-22T06:04:20.266Z,65.49
2023-02-22T06:06:53.144Z,65.54
2023-02-22T06:09:53.595Z,65.53
2023-02-22T06:12:32.798Z,65.59
2023-02-22T06:15:10.774Z,65.46
2023-02-22T06:17:45.583Z,65.38
2023-02-22T06:20:44.568Z,65.38
2023-02-22T06:23:18.893Z,65.53
2023-02-22T06:25:55.700Z,65.55
2023-02-22T06:28:33.106Z,65.28
2023-02-22T06:31:10.246Z,65.24
2023-02-22T06:33:43.075Z,65.32
2023-02-22T06:36:39.308Z,65.15
2023-02-22T06:43:04.468Z,65.53
2023-02-22T06:45:39.577Z,65.65
2023-02-22T06:48:16.587Z,65.78
2023-02-22T06:50:56.234Z,65.87
2023-02-22T06:53:33.552Z,65.58
2023-02-22T06:59:52.509Z,65.40
2023-02-22T07:02:26.392Z,65.50
2023-02-22T07:05:04.304Z,65.15
2023-02-22T07:07:41.074Z,65.11
2023-02-22T07:10:23.971Z,65.04
2023-02-22T07:12:58.306Z,64.94
2023-02-22T07:15:34.479Z,64.94
2023-02-22T07:18:33.682Z,64.66
2023-02-22T07:21:09.243Z,64.36
2023-02-22T07:23:48.903Z,64.22
2023-02-22T07:26:48.561Z,64.36
2023-02-22T07:29:22.557Z,63.93
2023-02-22T07:31:57.867Z,63.91
2023-02-22T07:34:34.797Z,63.65
2023-02-22T07:37:56.331Z,63.66
2023-02-22T07:40:32.800Z,63.74
2023-02-22T07:43:43.254Z,63.67
2023-02-22T07:46:17.978Z,63.38
2023-02-22T07:49:41.351Z,63.12
2023-02-22T07:52:40.554Z,63.08
2023-02-22T07:55:16.411Z,63.01
2023-02-22T07:57:57.075Z,62.96
2023-02-22T08:00:39.381Z,62.63
2023-02-22T08:06:24.862Z,62.36
2023-02-22T08:08:59.122Z,62.22
2023-02-22T08:12:01.199Z,62.26
2023-02-22T08:15:01.947Z,62.35
2023-02-22T08:20:40.955Z,61.63
2023-02-22T08:23:19.000Z,61.58
2023-02-22T08:25:55.059Z,61.53
2023-02-22T08:29:18.002Z,61.37
2023-02-22T08:32:16.739Z,61.40
2023-02-22T08:37:47.962Z,60.87
2023-02-22T08:40:23.772Z,60.54
2023-02-22T08:42:58.559Z,60.61
2023-02-22T08:45:36.857Z,60.66
2023-02-22T08:48:36.639Z,60.33
2023-02-22T08:57:49.249Z,59.28
2023-02-22T09:00:49.132Z,59.11
2023-02-22T09:03:22.792Z,58.76
2023-02-22T09:06:01.595Z,58.33
2023-02-22T09:08:57.744Z,58.08
2023-02-22T09:11:30.326Z,57.51
2023-02-22T09:14:06.508Z,57.66
2023-02-22T09:17:05.792Z,57.72
2023-02-22T09:19:44.879Z,57.66
2023-02-22T09:22:19.455Z,57.62
2023-02-22T09:25:17.441Z,57.35
2023-02-22T09:27:54.734Z,57.16
2023-02-22T09:30:32.230Z,56.78
2023-02-22T09:33:06.875Z,56.94
2023-02-22T09:36:33.231Z,56.82
2023-02-22T09:39:11.469Z,56.12
2023-02-22T09:41:55.340Z,55.20
2023-02-22T09:47:46.929Z,55.05
2023-02-22T09:50:25.649Z,55.09
2023-02-22T09:53:50.649Z,54.99
2023-02-22T09:56:29.914Z,54.58
2023-02-22T09:59:08.751Z,54.58
2023-02-22T10:02:09.982Z,54.42
2023-02-22T10:11:25.689Z,53.20
2023-02-22T10:14:35.345Z,53.21
2023-02-22T10:17:41.496Z,53.54
2023-02-22T10:20:28.711Z,53.44
2023-02-22T10:23:36.545Z,52.70
2023-02-22T10:26:44.938Z,52.12
2023-02-22T10:29:25.608Z,51.27
2023-02-22T10:32:22.575Z,51.20
2023-02-22T10:35:00.342Z,51.74
2023-02-22T10:37:35.518Z,52.18
2023-02-22T10:40:36.200Z,51.60
2023-02-22T10:43:11.184Z,51.32
2023-02-22T10:45:45.796Z,51.53
2023-02-22T10:48:46.427Z,51.41
2023-02-22T10:51:42.581Z,51.33
2023-02-22T10:54:28.102Z,51.41
2023-02-22T10:57:05.892Z,51.17
2023-02-22T11:00:27.251Z,50.87
2023-02-22T11:03:26.009Z,50.53
2023-02-22T11:06:01.566Z,50.33
2023-02-22T11:08:36.662Z,50.38
2023-02-22T11:11:26.385Z,49.60
2023-02-22T11:14:28.402Z,49.73
2023-02-22T11:17:04.514Z,49.88
2023-02-22T11:22:48.180Z,48.70
2023-02-22T11:25:26.856Z,48.39
2023-02-22T11:28:16.651Z,48.81
2023-02-22T11:30:59.565Z,49.20
2023-02-22T11:33:34.200Z,49.29
2023-02-22T11:36:34.053Z,47.86
2023-02-22T11:39:22.616Z,49.10
2023-02-22T11:42:52.079Z,49.84
2023-02-22T11:45:58.559Z,49.67
2023-02-22T11:48:39.505Z,49.62
2023-02-22T11:51:31.302Z,49.77
2023-02-22T11:54:30.606Z,49.77
2023-02-22T11:57:30.653Z,49.69
2023-02-22T12:04:05.932Z,49.42
2023-02-22T12:09:52.251Z,49.13
2023-02-22T12:12:29.680Z,49.03
2023-02-22T12:15:14.037Z,49.02
2023-02-22T12:18:00.011Z,49.19
2023-02-22T12:20:40.971Z,48.97
2023-02-22T12:23:23.386Z,47.21
2023-02-22T12:29:10.512Z,48.08
2023-02-22T12:31:48.465Z,48.64
2023-02-22T12:34:36.018Z,48.14
2023-02-22T12:37:16.183Z,49.05
2023-02-22T12:40:25.132Z,49.24
2023-02-22T12:43:05.836Z,48.24
2023-02-22T12:45:44.180Z,48.65
2023-02-22T12:48:27.878Z,49.42
2023-02-22T12:51:05.805Z,49.34
2023-02-22T12:53:40.226Z,48.43
2023-02-22T12:56:23.831Z,48.76
2023-02-22T12:59:29.037Z,48.82
2023-02-22T13:02:37.292Z,48.58
2023-02-22T13:05:21.568Z,48.62
2023-02-22T13:08:24.609Z,48.17
2023-02-22T13:11:17.376Z,48.15
2023-02-22T13:16:59.935Z,47.78
2023-02-22T13:19:41.798Z,48.22
2023-02-22T13:25:23.350Z,46.79
2023-02-22T13:28:26.880Z,46.62
2023-02-22T13:31:15.978Z,47.44
2023-02-22T13:34:05.844Z,46.94
2023-02-22T13:36:51.707Z,46.63
2023-02-22T13:39:57.502Z,46.19
2023-02-22T13:42:52.522Z,45.82
2023-02-22T13:45:45.476Z,46.82
2023-02-22T13:48:29.976Z,46.89
2023-02-22T13:51:11.498Z,46.12
2023-02-22T13:53:55.483Z,46.44
2023-02-22T13:56:28.190Z,46.06
2023-02-22T13:59:02.715Z,46.50
2023-02-22T14:01:49.405Z,46.81
2023-02-22T14:04:49.268Z,47.21
2023-02-22T14:07:59.586Z,47.35
2023-02-22T14:10:55.127Z,47.22
2023-02-22T14:13:28.778Z,47.27
2023-02-22T14:16:22.873Z,46.44
2023-02-22T14:19:06.947Z,46.19
2023-02-22T14:21:44.009Z,46.77
2023-02-22T14:24:19.204Z,46.88
2023-02-22T14:27:02.164Z,46.92
2023-02-22T14:29:35.447Z,47.10
2023-02-22T14:32:10.763Z,47.10
2023-02-22T14:34:52.101Z,46.78
2023-02-22T14:37:26.819Z,47.10
2023-02-22T14:40:13.000Z,47.25
2023-02-22T14:42:52.264Z,47.22
2023-02-22T14:45:29.288Z,47.18
2023-02-22T14:48:13.915Z,47.13
2023-02-22T14:50:52.504Z,47.05
2023-02-22T14:53:34.757Z,47.06
2023-02-22T14:56:11.841Z,46.82
2023-02-22T14:58:48.128Z,46.50
2023-02-22T15:01:33.890Z,46.57
2023-02-22T15:07:27.637Z,46.11
2023-02-22T15:10:26.029Z,46.73
2023-02-22T15:13:10.752Z,46.58
2023-02-22T15:15:50.311Z,46.67
2023-02-22T15:18:33.907Z,47.16
2023-02-22T15:21:13.483Z,47.01
2023-02-22T15:23:54.677Z,46.94
2023-02-22T15:26:28.860Z,46.68
2023-02-22T15:29:02.905Z,46.70
2023-02-22T15:31:38.992Z,46.47
2023-02-22T15:34:25.906Z,46.51
2023-02-22T15:37:07.775Z,46.62
2023-02-22T15:39:44.051Z,47.04
2023-02-22T15:42:25.066Z,47.21
2023-02-22T15:45:00.553Z,47.16
2023-02-22T15:48:00.895Z,47.28
2023-02-22T15:50:35.370Z,47.20
2023-02-22T15:53:09.885Z,47.24
2023-02-22T15:55:48.851Z,47.24
2023-02-22T15:58:30.172Z,47.28
2023-02-22T16:01:28.880Z,47.39
2023-02-22T16:04:03.141Z,47.11
2023-02-22T16:06:37.064Z,47.11
2023-02-22T16:15:27.430Z,47.13
2023-02-22T16:18:02.418Z,47.26
2023-02-22T16:21:08.738Z,47.14
2023-02-22T16:24:16.522Z,47.21
2023-02-22T16:27:22.199Z,47.31
2023-02-22T16:30:26.858Z,47.54
2023-02-22T16:33:03.857Z,47.55
2023-02-22T16:38:59.056Z,47.51
2023-02-22T16:41:34.304Z,47.79
2023-02-22T16:44:56.684Z,47.81
2023-02-22T16:48:03.043Z,48.08
2023-02-22T16:50:37.596Z,48.17
2023-02-22T16:53:41.445Z,48.24
2023-02-22T16:56:19.491Z,48.23
2023-02-22T16:58:54.514Z,48.23
2023-02-22T17:01:29.804Z,48.38
2023-02-22T17:04:06.076Z,48.39
2023-02-22T17:06:40.646Z,48.52
2023-02-22T17:09:20.248Z,48.68
2023-02-22T17:12:22.360Z,48.72
2023-02-22T17:14:59.991Z,48.81
2023-02-22T17:17:35.479Z,48.89
2023-02-22T17:20:12.548Z,49.04
2023-02-22T17:22:45.570Z,49.13
2023-02-22T17:25:26.331Z,49.36
2023-02-22T17:28:02.667Z,49.36
2023-02-22T17:30:36.382Z,49.50
2023-02-22T17:36:38.009Z,49.49
2023-02-22T17:39:16.305Z,49.63
2023-02-22T17:45:20.443Z,49.90
2023-02-22T17:48:24.147Z,50.16
2023-02-22T17:51:00.028Z,50.19
2023-02-22T17:53:37.409Z,50.29
2023-02-22T17:59:22.604Z,50.50
2023-02-22T18:02:03.372Z,50.52
2023-02-22T18:05:03.378Z,50.70
2023-02-22T18:07:39.043Z,50.74
2023-02-22T18:10:35.820Z,50.92
2023-02-22T18:13:32.455Z,51.21
2023-02-22T18:16:06.429Z,51.26
2023-02-22T18:18:42.329Z,51.14
2023-02-22T18:21:16.384Z,51.23
2023-02-22T18:23:50.513Z,51.42
2023-02-22T18:29:48.703Z,51.65
2023-02-22T18:32:22.643Z,51.84
2023-02-22T18:34:57.437Z,51.95
2023-02-22T18:37:56.810Z,52.21
2023-02-22T18:40:33.394Z,52.24
2023-02-22T18:43:05.745Z,52.22
2023-02-22T18:45:38.165Z,52.35
2023-02-22T18:48:11.876Z,52.39
2023-02-22T18:50:47.971Z,52.54
2023-02-22T18:53:23.994Z,52.54
2023-02-22T18:55:58.415Z,52.69
2023-02-22T18:58:34.493Z,52.78
2023-02-22T19:01:09.562Z,53.05
2023-02-22T19:03:43.605Z,53.26
2023-02-22T19:09:44.433Z,53.53
2023-02-22T19:12:24.948Z,53.68
2023-02-22T19:15:02.036Z,53.71
2023-02-22T19:18:27.805Z,53.88
2023-02-22T19:21:05.400Z,53.91
2023-02-22T19:23:46.876Z,54.17
2023-02-22T19:26:32.691Z,53.99
2023-02-22T19:29:09.144Z,54.04
2023-02-22T19:31:51.571Z,54.10
2023-02-22T19:34:32.627Z,54.35
2023-02-22T19:37:06.340Z,54.23
2023-02-22T19:39:41.221Z,54.17
2023-02-22T19:42:14.155Z,54.42
2023-02-22T19:44:50.189Z,54.36
2023-02-22T19:48:10.418Z,54.49
2023-02-22T19:50:49.359Z,54.46
2023-02-22T19:53:24.089Z,54.56
2023-02-22T19:59:09.618Z,54.78
2023-02-22T20:02:29.921Z,54.75
2023-02-22T20:05:26.409Z,54.78
2023-02-22T20:08:49.422Z,54.86
2023-02-22T20:11:25.071Z,54.99
2023-02-22T20:14:27.029Z,55.18
2023-02-22T20:17:00.153Z,55.21
2023-02-22T20:22:57.137Z,55.49
2023-02-22T20:25:30.538Z,55.51
2023-02-22T20:28:12.095Z,55.60
2023-02-22T20:30:47.623Z,55.77
2023-02-22T20:33:23.539Z,55.86
2023-02-22T20:36:27.003Z,55.85
2023-02-22T20:39:13.610Z,55.92
2023-02-22T20:41:49.455Z,55.98
2023-02-22T20:44:26.683Z,56.21
2023-02-22T20:47:02.500Z,56.22
2023-02-22T20:49:44.209Z,56.15
2023-02-22T20:52:24.968Z,56.30
2023-02-22T20:55:04.319Z,56.36
2023-02-22T20:58:04.887Z,56.22
2023-02-22T21:00:46.329Z,56.07
2023-02-22T21:03:20.876Z,56.20
2023-02-22T21:08:57.130Z,56.29
2023-02-22T21:11:57.628Z,56.24
2023-02-22T21:14:40.262Z,56.33
2023-02-22T21:17:23.005Z,56.38
2023-02-22T21:20:27.997Z,56.46
2023-02-22T21:23:06.039Z,56.51
2023-02-22T21:25:38.256Z,56.52
2023-02-22T21:28:11.874Z,56.50
2023-02-22T21:30:50.247Z,56.46
2023-02-22T21:34:14.699Z,56.48
2023-02-22T21:36:48.830Z,56.49
2023-02-22T21:39:28.583Z,56.56
2023-02-22T21:42:03.532Z,56.43
2023-02-22T21:44:47.181Z,56.42
2023-02-22T21:48:10.011Z,56.54
2023-02-22T21:50:44.721Z,56.52
2023-02-22T21:53:19.131Z,56.40
2023-02-22T22:02:08.854Z,56.48
2023-02-22T22:08:07.577Z,56.64
2023-02-22T22:10:48.370Z,56.70
2023-02-22T22:13:23.083Z,57.04
2023-02-22T22:15:56.068Z,57.48
2023-02-22T22:18:29.219Z,57.60
2023-02-22T22:21:02.323Z,57.59
2023-02-22T22:23:39.086Z,57.68
2023-02-22T22:26:13.863Z,57.90
2023-02-22T22:28:52.168Z,58.01
2023-02-22T22:31:30.690Z,58.07
2023-02-22T22:34:04.577Z,57.94
2023-02-22T22:37:30.186Z,58.32
2023-02-22T22:40:05.968Z,58.52
2023-02-22T22:42:44.862Z,58.54
2023-02-22T22:45:45.705Z,58.72
2023-02-22T22:48:22.937Z,58.82
2023-02-22T22:51:08.153Z,58.84
2023-02-22T22:54:15.896Z,59.21
2023-02-22T22:57:12.853Z,59.36
2023-02-22T23:02:55.375Z,59.55
2023-02-22T23:05:29.667Z,59.61
2023-02-22T23:08:29.414Z,59.74
2023-02-22T23:11:08.265Z,59.90
2023-02-22T23:13:44.083Z,59.98
2023-02-22T23:17:17.363Z,60.11
2023-02-22T23:19:57.011Z,60.25
2023-02-22T23:22:58.023Z,60.24
2023-02-22T23:25:35.905Z,60.62
2023-02-22T23:28:15.954Z,60.59
2023-02-22T23:30:52.407Z,60.61
2023-02-22T23:33:52.104Z,60.57
2023-02-22T23:36:29.458Z,60.56
2023-02-22T23:39:29.710Z,60.63
2023-02-22T23:42:04.062Z,60.57
2023-02-22T23:45:03.075Z,60.67
2023-02-22T23:47:37.019Z,60.66
2023-02-22T23:50:16.311Z,60.75
2023-02-22T23:56:18.046Z,60.93
2023-02-22T23:58:53.606Z,60.77
